Le Roy, KS (66857)

4:50 AM CDT on August 01, 2014 (GMT -0500)
KS (KKSBURLI4) Elev 1050 ft | 38.19 °N, 95.74 °W | Change Station

Current weather conditions updated 3 seconds ago

Clear
Clear
64.2 °F
Feels Like 64.2 °F
N
0.0
Wind Variable Wind from South
Gusts 0.0 mph

Today is forecast to be nearly the same temperature as yesterday.

Today
High -- | Low -- °F
--% Chance of Precip.
Yesterday
High -- | Low -- °F
Precip. -- in
6:25 AM 8:31 PM
Waxing Crescent, 25% visible
Pressure 30.04 in
Visibility 9.0 miles
Clouds Clear
Dew Point 52 °F
Humidity 63%
Rainfall 0.00 in
Snow Depth Not available.
UV 0 out of 12
Pollen 6.60 out of 12
Air Quality Not available.
Flu Activity Not available.
METAR KCNU 010852Z AUTO 00000KT 9SM CLR 18/16 A3007 RMK AO2 SLP173 T01780161 55002

More Conditions Fewer Conditions

Pressure 30.04 in
Visibility 9.0 miles
Clouds Clear
Dew Point 52 °F
Humidity 63%
Rainfall 0.00 in
Snow Depth Not available.
UV 0 out of 12
Pollen 6.60 out of 12
Air Quality Not available.
Flu Activity Not available.
METAR KCNU 010852Z AUTO 00000KT 9SM CLR 18/16 A3007 RMK AO2 SLP173 T01780161 55002

More Conditions Fewer Conditions

10-Day Weather Forecast

Almanac

Astronomy

Aug. 01, 2014 Rise Set
Actual Time 6:25 AM CDT 8:31 PM CDT
Civil Twilight 5:56 AM CDT 9:00 PM CDT
Nautical Twilight 5:20 AM CDT 9:36 PM CDT
Astronomical Twilight 4:41 AM CDT 10:15 PM CDT
Moon 11:44 AM CDT 11:23 PM CDT
Length of Visible Light 15h 04m
Length of Day
14h 06m
Tomorrow will be 1m 52s shorter.
Waxing Crescent, 25% of the Moon is Illuminated
Today
Waxing Crescent
Aug 3
First Quarter
Aug 10
Full
Aug 17
Last Quarter
Aug 25
New

Today's Extremes

State Highs State Lows

Community

WunderPhotos

Upload Photos

1,739,530 photos uploaded!

Nearby

Snow Depth

Station Depth Elevation
No new snow has been reported.

Earthquake Activity

City Distance Mag. Time & Date
Yale, Oklahoma 149 miles 3.2 5:19 PM CDT
2014-07-27
Perry, Oklahoma 159 miles 2.8 4:28 AM CDT
2014-07-27
Minimum magnitude displayed is 2.5.

Coastal Water Temperatures

Place Temperature
No Stations Reporting

Nearby Weather Stations

Station Location Temp. Dew Point Humidity Wind Precip. Elev Updated Type
KS, Burlington, KS 64.2 °F 52 °F 63% South  at  0.0 mph 0.00 in / hr 1050 ft 4:50 AM CDT Rapid Fire
Gridley Fire Station, Gridley, KS 63.4 °F 60 °F 90% WSW  at  4.0 mph 0.00 in / hr 1161 ft 4:39 AM CDT Normal
MesoWest BIRCH , Welda, KS 62 °F - - North  at  - 0.00 in / hr 1032 ft 3:20 AM CDT MADIS
Coffey County Court House Burlington, Burlington, KS 64.7 °F 60 °F 86% SSW  at  0.0 mph 0.00 in / hr 0 ft 4:45 AM CDT Normal
Buffalo, Yates Center, KS 57.9 °F 58 °F 99% NW  at  0.0 mph - / hr 935 ft 4:38 AM CDT Normal
Coffey County Lake, Burlington, KS 64.7 °F 61 °F 86% West  at  3.0 mph 0.00 in / hr 0 ft 4:34 AM CDT Normal
BETO Old Hwy 50 and 75, Waverly, KS 64.4 °F 60 °F 86% SSE  at  0.0 mph 0.00 in / hr 0 ft 4:44 AM CDT Normal

Show More Stations Show Fewer Stations